createdAt,value
2022-09-23T00:00:18.558Z,99618.47
2022-09-23T00:01:21.044Z,99618.59
2022-09-23T00:02:23.076Z,99613.02
2022-09-23T00:03:26.536Z,99606.39
2022-09-23T00:04:29.101Z,99614.17
2022-09-23T00:05:31.690Z,99610.72
2022-09-23T00:06:33.624Z,99602.03
2022-09-23T00:07:35.484Z,99599.39
2022-09-23T00:08:37.728Z,99603.42
2022-09-23T00:09:39.527Z,99607.94
2022-09-23T00:10:41.451Z,99597.63
2022-09-23T00:11:44.219Z,99602.75
2022-09-23T00:12:46.286Z,99610.02
2022-09-23T00:13:51.196Z,99604.11
2022-09-23T00:14:53.091Z,99600.83
2022-09-23T00:15:54.825Z,99603.53
2022-09-23T00:16:56.749Z,99605.34
2022-09-23T00:17:58.877Z,99600.03
2022-09-23T00:19:02.734Z,99602.70
2022-09-23T00:20:06.094Z,99609.52
2022-09-23T00:21:11.241Z,99600.83
2022-09-23T00:22:13.477Z,99600.83
2022-09-23T00:23:15.376Z,99597.37
2022-09-23T00:24:17.050Z,99608.47
2022-09-23T00:25:18.918Z,99605.34
2022-09-23T00:26:22.040Z,99596.72
2022-09-23T00:27:24.994Z,99600.34
2022-09-23T00:28:26.941Z,99599.50
2022-09-23T00:29:28.732Z,99597.89
2022-09-23T00:30:30.693Z,99597.81
2022-09-23T00:31:32.487Z,99603.98
2022-09-23T00:32:35.232Z,99605.74
2022-09-23T00:33:37.677Z,99605.78
2022-09-23T00:34:39.596Z,99593.41
2022-09-23T00:35:41.865Z,99596.72
2022-09-23T00:36:44.041Z,99597.55
2022-09-23T00:37:46.064Z,99593.94
2022-09-23T00:38:48.119Z,99596.84
2022-09-23T00:39:49.891Z,99599.69
2022-09-23T00:40:52.007Z,99599.69
2022-09-23T00:41:54.043Z,99587.31
2022-09-23T00:42:56.315Z,99591.61
2022-09-23T00:44:00.150Z,99594.95
2022-09-23T00:45:02.786Z,99591.83
2022-09-23T00:46:07.518Z,99589.02
2022-09-23T00:47:19.689Z,99585.37
2022-09-23T00:49:31.309Z,99590.22
2022-09-23T00:50:39.526Z,99592.62
2022-09-23T00:51:45.557Z,99592.55
2022-09-23T00:52:50.936Z,99590.17
2022-09-23T00:53:53.178Z,99589.38
2022-09-23T00:54:57.143Z,99593.67
2022-09-23T00:56:05.338Z,99596.08
2022-09-23T00:57:09.193Z,99589.05
2022-09-23T00:58:14.744Z,99597.02
2022-09-23T00:59:18.160Z,99591.19
2022-09-23T01:00:22.557Z,99591.72
2022-09-23T01:01:25.276Z,99593.15
2022-09-23T01:02:27.579Z,99591.20
2022-09-23T01:03:31.283Z,99597.70
2022-09-23T01:04:35.168Z,99588.59
2022-09-23T01:05:37.065Z,99582.50
2022-09-23T01:06:38.931Z,99592.09
2022-09-23T01:07:40.789Z,99588.28
2022-09-23T01:08:45.619Z,99594.55
2022-09-23T01:09:48.449Z,99594.55
2022-09-23T01:11:10.816Z,99590.34
2022-09-23T01:12:25.635Z,99591.75
2022-09-23T01:13:31.609Z,99590.22
2022-09-23T01:14:57.948Z,99592.89
2022-09-23T01:16:15.264Z,99593.16
2022-09-23T01:17:23.724Z,99590.36
2022-09-23T01:18:55.394Z,99593.04
2022-09-23T01:20:06.731Z,99597.95
2022-09-23T01:21:18.341Z,99586.12
2022-09-23T01:22:33.929Z,99591.20
2022-09-23T01:23:39.419Z,99590.09
2022-09-23T01:24:50.755Z,99592.31
2022-09-23T01:26:22.986Z,99595.58
2022-09-23T01:27:37.806Z,99593.25
2022-09-23T01:28:56.434Z,99584.19
2022-09-23T01:31:46.124Z,99584.19
2022-09-23T01:32:57.472Z,99593.34
2022-09-23T01:34:09.240Z,99584.72
2022-09-23T01:35:32.927Z,99584.84
2022-09-23T01:36:47.876Z,99580.17
2022-09-23T01:37:56.194Z,99582.69
2022-09-23T01:39:01.715Z,99586.61
2022-09-23T01:40:10.512Z,99578.11
2022-09-23T01:41:22.617Z,99588.48
2022-09-23T01:42:30.916Z,99575.24
2022-09-23T01:43:53.112Z,99586.91
2022-09-23T01:45:01.647Z,99585.73
2022-09-23T01:46:19.024Z,99584.83
2022-09-23T01:47:24.364Z,99584.51
2022-09-23T01:48:38.936Z,99584.28
2022-09-23T01:49:44.974Z,99579.23
2022-09-23T01:50:57.199Z,99578.53
2022-09-23T01:52:09.511Z,99579.78
2022-09-23T01:53:23.836Z,99581.20
2022-09-23T01:54:41.757Z,99577.66
2022-09-23T01:55:47.238Z,99580.06
2022-09-23T01:57:02.981Z,99576.01
2022-09-23T01:58:11.556Z,99581.32
2022-09-23T01:59:25.535Z,99573.61
2022-09-23T02:00:31.128Z,99579.44
2022-09-23T02:01:36.824Z,99577.55
2022-09-23T02:02:42.603Z,99576.64
2022-09-23T02:03:57.857Z,99574.44
2022-09-23T02:05:03.435Z,99579.63
2022-09-23T02:06:17.892Z,99577.94
2022-09-23T02:07:23.495Z,99581.59
2022-09-23T02:08:38.119Z,99579.19
2022-09-23T02:09:43.325Z,99581.94
2022-09-23T02:10:48.940Z,99578.28
2022-09-23T02:11:54.461Z,99575.88
2022-09-23T02:13:00.106Z,99575.24
2022-09-23T02:14:05.732Z,99578.86
2022-09-23T02:15:18.617Z,99574.34
2022-09-23T02:16:33.448Z,99571.74
2022-09-23T02:17:51.017Z,99564.59
2022-09-23T02:18:59.494Z,99565.86
2022-09-23T02:20:05.095Z,99571.33
2022-09-23T02:21:09.025Z,99571.74
2022-09-23T02:22:26.688Z,99566.67
2022-09-23T02:23:36.210Z,99570.12
2022-09-23T02:24:39.487Z,99571.59
2022-09-23T02:26:04.897Z,99567.03
2022-09-23T02:27:38.280Z,99570.94
2022-09-23T02:28:50.051Z,99568.42
2022-09-23T02:29:58.713Z,99569.83
2022-09-23T02:32:28.200Z,99565.36
2022-09-23T02:33:36.682Z,99566.05
2022-09-23T02:34:47.674Z,99559.24
2022-09-23T02:35:56.217Z,99557.91
2022-09-23T02:37:17.098Z,99563.50
2022-09-23T02:38:34.661Z,99565.34
2022-09-23T02:39:59.709Z,99562.04
2022-09-23T02:41:17.963Z,99556.77
2022-09-23T02:42:26.241Z,99563.22
2022-09-23T02:43:31.937Z,99563.81
2022-09-23T02:44:34.201Z,99566.76
2022-09-23T02:45:36.570Z,99558.58
2022-09-23T02:46:39.137Z,99563.30
2022-09-23T02:47:43.999Z,99570.27
2022-09-23T02:49:12.232Z,99563.50
2022-09-23T02:50:16.081Z,99561.69
2022-09-23T02:51:18.366Z,99563.58
2022-09-23T02:52:20.290Z,99568.77
2022-09-23T02:53:23.606Z,99561.06
2022-09-23T02:54:28.049Z,99560.16
2022-09-23T02:55:30.073Z,99564.36
2022-09-23T02:56:32.675Z,99564.41
2022-09-23T02:57:34.658Z,99569.83
2022-09-23T02:58:37.069Z,99564.68
2022-09-23T02:59:39.314Z,99567.16
2022-09-23T03:01:00.028Z,99568.70
2022-09-23T03:02:20.733Z,99568.06
2022-09-23T03:03:44.317Z,99561.06
2022-09-23T03:04:58.893Z,99556.62
2022-09-23T03:06:04.428Z,99561.69
2022-09-23T03:07:28.278Z,99557.67
2022-09-23T03:10:04.357Z,99559.59
2022-09-23T03:11:10.288Z,99561.81
2022-09-23T03:12:35.637Z,99556.62
2022-09-23T03:14:00.758Z,99554.68
2022-09-23T03:15:24.185Z,99559.87
2022-09-23T03:16:45.083Z,99561.18
2022-09-23T03:18:08.800Z,99559.37
2022-09-23T03:19:14.303Z,99555.47
2022-09-23T03:20:35.074Z,99564.66
2022-09-23T03:21:49.675Z,99564.66
2022-09-23T03:22:55.152Z,99562.78
2022-09-23T03:24:02.390Z,99569.78
2022-09-23T03:25:11.012Z,99562.36
2022-09-23T03:26:23.777Z,99563.85
2022-09-23T03:27:29.088Z,99568.34
2022-09-23T03:28:34.505Z,99563.22
2022-09-23T03:29:36.557Z,99566.28
2022-09-23T03:30:39.454Z,99569.19
2022-09-23T03:31:43.017Z,99577.64
2022-09-23T03:32:46.435Z,99573.09
2022-09-23T03:33:51.993Z,99569.24
2022-09-23T03:34:57.413Z,99579.23
2022-09-23T03:36:06.051Z,99571.80
2022-09-23T03:37:11.569Z,99579.47
2022-09-23T03:38:17.912Z,99567.90
2022-09-23T03:39:44.667Z,99570.62
2022-09-23T03:40:51.152Z,99572.51
2022-09-23T03:41:56.535Z,99575.46
2022-09-23T03:43:00.024Z,99564.99
2022-09-23T03:44:03.894Z,99567.16
2022-09-23T03:45:09.651Z,99568.84
2022-09-23T03:46:12.912Z,99569.60
2022-09-23T03:47:15.884Z,99564.41
2022-09-23T03:48:17.841Z,99567.94
2022-09-23T03:49:26.259Z,99565.62
2022-09-23T03:50:28.937Z,99564.05
2022-09-23T03:51:30.716Z,99560.66
2022-09-23T03:52:32.439Z,99564.05
2022-09-23T03:53:34.200Z,99564.91
2022-09-23T03:54:35.947Z,99563.78
2022-09-23T03:55:37.810Z,99570.39
2022-09-23T03:56:40.942Z,99565.62
2022-09-23T03:57:43.481Z,99565.62
2022-09-23T03:58:45.387Z,99576.84
2022-09-23T03:59:48.612Z,99574.59
2022-09-23T04:00:50.545Z,99569.13
2022-09-23T04:01:53.596Z,99574.05
2022-09-23T04:02:55.752Z,99567.71
2022-09-23T04:03:57.672Z,99567.59
2022-09-23T04:04:59.570Z,99575.30
2022-09-23T04:06:01.614Z,99574.75
2022-09-23T04:07:03.475Z,99565.47
2022-09-23T04:08:05.994Z,99580.23
2022-09-23T04:09:08.498Z,99580.23
2022-09-23T04:10:10.788Z,99577.73
2022-09-23T04:11:12.718Z,99580.38
2022-09-23T04:12:15.702Z,99579.06
2022-09-23T04:13:17.698Z,99579.06
2022-09-23T04:14:21.094Z,99578.15
2022-09-23T04:15:23.527Z,99583.97
2022-09-23T04:16:25.674Z,99584.45
2022-09-23T04:17:28.997Z,99572.80
2022-09-23T04:18:31.143Z,99575.89
2022-09-23T04:19:33.108Z,99571.38
2022-09-23T04:20:35.168Z,99573.18
2022-09-23T04:21:37.954Z,99586.86
2022-09-23T04:22:39.653Z,99581.30
2022-09-23T04:23:41.920Z,99588.67
2022-09-23T04:24:43.787Z,99588.05
2022-09-23T04:25:49.761Z,99586.55
2022-09-23T04:26:53.865Z,99586.55
2022-09-23T04:27:55.707Z,99585.37
2022-09-23T04:28:57.787Z,99585.45
2022-09-23T04:30:00.760Z,99586.16
2022-09-23T04:31:07.212Z,99586.55
2022-09-23T04:32:09.484Z,99581.36
2022-09-23T04:33:12.568Z,99583.61
2022-09-23T04:34:15.154Z,99586.36
2022-09-23T04:35:17.101Z,99582.83
2022-09-23T04:36:20.761Z,99583.61
2022-09-23T04:37:22.814Z,99584.74
2022-09-23T04:38:25.013Z,99585.73
2022-09-23T04:39:27.023Z,99590.56
2022-09-23T04:40:29.289Z,99584.33
2022-09-23T04:41:31.473Z,99581.45
2022-09-23T04:42:33.789Z,99581.53
2022-09-23T04:43:35.792Z,99588.55
2022-09-23T04:44:38.834Z,99589.25
2022-09-23T04:46:52.126Z,99586.98
2022-09-23T04:47:55.144Z,99589.53
2022-09-23T04:48:59.513Z,99589.37
2022-09-23T04:50:04.097Z,99585.74
2022-09-23T04:51:10.415Z,99589.53
2022-09-23T04:52:13.673Z,99584.83
2022-09-23T04:53:15.626Z,99591.28
2022-09-23T04:54:17.810Z,99591.16
2022-09-23T04:55:20.130Z,99587.44
2022-09-23T04:56:30.971Z,99586.16
2022-09-23T04:57:33.022Z,99592.61
2022-09-23T04:58:35.447Z,99586.84
2022-09-23T04:59:38.164Z,99585.22
2022-09-23T05:00:40.795Z,99585.02
2022-09-23T05:01:43.105Z,99580.73
2022-09-23T05:02:46.021Z,99586.55
2022-09-23T05:03:47.962Z,99587.27
2022-09-23T05:04:49.893Z,99585.50
2022-09-23T05:05:51.855Z,99585.66
2022-09-23T05:06:55.942Z,99584.83
2022-09-23T05:07:58.685Z,99590.53
2022-09-23T05:09:04.060Z,99586.25
2022-09-23T05:10:08.880Z,99590.61
2022-09-23T05:11:11.538Z,99586.12
2022-09-23T05:12:13.708Z,99586.12
2022-09-23T05:13:15.387Z,99584.16
2022-09-23T05:14:17.305Z,99586.76
2022-09-23T05:15:20.214Z,99584.28
2022-09-23T05:16:23.418Z,99586.12
2022-09-23T05:17:26.114Z,99590.34
2022-09-23T05:18:34.567Z,99583.81
2022-09-23T05:19:36.421Z,99586.48
2022-09-23T05:20:38.534Z,99582.98
2022-09-23T05:21:41.006Z,99586.98
2022-09-23T05:22:42.824Z,99587.27
2022-09-23T05:23:50.721Z,99590.19
2022-09-23T05:24:53.539Z,99580.78
2022-09-23T05:25:58.846Z,99581.56
2022-09-23T05:27:02.055Z,99583.30
2022-09-23T05:28:09.720Z,99587.78
2022-09-23T05:29:09.856Z,99581.64
2022-09-23T05:30:13.318Z,99584.83
2022-09-23T05:31:20.344Z,99578.73
2022-09-23T05:32:22.249Z,99586.59
2022-09-23T05:33:24.140Z,99586.64
2022-09-23T05:34:26.214Z,99590.45
2022-09-23T05:35:29.351Z,99579.36
2022-09-23T05:36:38.396Z,99591.59
2022-09-23T05:37:39.384Z,99595.09
2022-09-23T05:38:41.115Z,99590.28
2022-09-23T05:39:43.571Z,99594.23
2022-09-23T05:40:45.625Z,99594.94
2022-09-23T05:41:47.710Z,99592.30
2022-09-23T05:42:49.495Z,99585.06
2022-09-23T05:43:53.696Z,99587.55
2022-09-23T05:44:56.195Z,99586.60
2022-09-23T05:46:12.697Z,99588.87
2022-09-23T05:47:14.970Z,99592.94
2022-09-23T05:48:18.803Z,99585.14
2022-09-23T05:49:29.662Z,99589.44
2022-09-23T05:50:25.228Z,99593.45
2022-09-23T05:51:30.926Z,99593.72
2022-09-23T05:52:32.071Z,99594.86
2022-09-23T05:53:34.429Z,99597.38
2022-09-23T05:54:36.366Z,99599.20
2022-09-23T05:55:38.950Z,99590.92
2022-09-23T05:56:41.406Z,99593.04
2022-09-23T05:57:43.397Z,99594.45
2022-09-23T05:58:47.913Z,99595.15
2022-09-23T05:59:49.706Z,99596.34
2022-09-23T06:00:53.363Z,99597.59
2022-09-23T06:01:57.012Z,99596.42
2022-09-23T06:02:58.990Z,99601.31
2022-09-23T06:04:02.689Z,99597.83
2022-09-23T06:05:05.429Z,99591.56
2022-09-23T06:06:11.421Z,99587.69
2022-09-23T06:07:13.229Z,99591.50
2022-09-23T06:08:15.078Z,99590.92
2022-09-23T06:09:16.876Z,99592.73
2022-09-23T06:10:19.166Z,99588.95
2022-09-23T06:11:21.673Z,99591.55
2022-09-23T06:12:24.760Z,99589.79
2022-09-23T06:13:26.622Z,99594.00
2022-09-23T06:14:28.375Z,99588.95
2022-09-23T06:15:31.468Z,99586.56
2022-09-23T06:16:34.866Z,99586.56
2022-09-23T06:17:37.119Z,99587.11
2022-09-23T06:18:44.245Z,99592.19
2022-09-23T06:19:46.169Z,99597.38
2022-09-23T06:20:48.118Z,99593.59
2022-09-23T06:21:50.048Z,99596.95
2022-09-23T06:22:55.390Z,99595.41
2022-09-23T06:23:58.540Z,99592.54
2022-09-23T06:25:00.413Z,99597.95
2022-09-23T06:26:04.897Z,99597.55
2022-09-23T06:27:06.756Z,99605.34
2022-09-23T06:28:08.424Z,99600.06
2022-09-23T06:29:12.067Z,99600.06
2022-09-23T06:30:14.571Z,99596.81
2022-09-23T06:31:17.172Z,99600.06
2022-09-23T06:32:22.148Z,99598.24
2022-09-23T06:33:34.515Z,99603.44
2022-09-23T06:34:29.125Z,99605.55
2022-09-23T06:35:31.532Z,99598.38
2022-09-23T06:36:43.072Z,99598.11
2022-09-23T06:37:38.640Z,99599.19
2022-09-23T06:38:42.180Z,99598.24
2022-09-23T06:39:45.131Z,99605.27
2022-09-23T06:40:50.956Z,99603.16
2022-09-23T06:41:52.921Z,99601.33
2022-09-23T06:43:01.143Z,99597.39
2022-09-23T06:44:03.495Z,99600.53
2022-09-23T06:45:07.084Z,99596.53
2022-09-23T06:46:13.893Z,99604.42
2022-09-23T06:47:16.807Z,99598.22
2022-09-23T06:48:19.181Z,99597.02
2022-09-23T06:49:21.072Z,99603.91
2022-09-23T06:50:27.749Z,99593.23
2022-09-23T06:51:29.846Z,99602.14
2022-09-23T06:52:33.173Z,99596.19
2022-09-23T06:53:35.226Z,99596.10
2022-09-23T06:54:37.211Z,99597.45
2022-09-23T06:55:39.561Z,99603.80
2022-09-23T06:56:43.478Z,99609.34
2022-09-23T06:57:46.263Z,99610.59
2022-09-23T06:58:49.127Z,99601.78
2022-09-23T06:59:51.022Z,99602.71
2022-09-23T07:00:53.769Z,99603.78
2022-09-23T07:01:55.846Z,99604.85
2022-09-23T07:02:58.881Z,99605.39
2022-09-23T07:04:01.462Z,99599.36
2022-09-23T07:05:04.280Z,99603.44
2022-09-23T07:06:07.247Z,99610.34
2022-09-23T07:07:09.030Z,99596.34
2022-09-23T07:08:10.880Z,99600.50
2022-09-23T07:09:12.849Z,99598.92
2022-09-23T07:10:15.727Z,99595.19
2022-09-23T07:11:17.856Z,99590.63
2022-09-23T07:12:19.835Z,99595.00
2022-09-23T07:13:21.996Z,99597.23
2022-09-23T07:14:24.240Z,99592.62
2022-09-23T07:15:27.184Z,99586.98
2022-09-23T07:16:29.207Z,99589.72
2022-09-23T07:17:31.999Z,99585.00
2022-09-23T07:18:36.710Z,99593.88
2022-09-23T07:19:37.995Z,99593.50
2022-09-23T07:20:39.885Z,99590.20
2022-09-23T07:21:42.437Z,99593.59
2022-09-23T07:22:51.953Z,99594.63
2022-09-23T07:23:54.444Z,99592.48
2022-09-23T07:24:57.317Z,99597.33
2022-09-23T07:26:00.639Z,99600.35
2022-09-23T07:27:02.693Z,99592.81
2022-09-23T07:28:04.606Z,99599.78
2022-09-23T07:29:06.835Z,99595.90
2022-09-23T07:30:19.336Z,99592.75
2022-09-23T07:31:22.818Z,99592.75
2022-09-23T07:32:21.954Z,99594.84
2022-09-23T07:33:31.763Z,99595.54
2022-09-23T07:34:27.870Z,99590.50
2022-09-23T07:35:29.791Z,99598.78
2022-09-23T07:36:31.903Z,99594.59
2022-09-23T07:37:34.889Z,99597.89
2022-09-23T07:38:41.518Z,99596.81
2022-09-23T07:39:43.421Z,99594.51
2022-09-23T07:40:46.648Z,99590.69
2022-09-23T07:41:48.831Z,99591.69
2022-09-23T07:42:52.014Z,99593.77
2022-09-23T07:43:55.875Z,99584.28
2022-09-23T07:44:57.809Z,99580.30
2022-09-23T07:46:02.831Z,99584.56
2022-09-23T07:47:05.869Z,99583.05
2022-09-23T07:48:07.926Z,99585.11
2022-09-23T07:49:10.269Z,99581.05
2022-09-23T07:50:12.988Z,99574.84
2022-09-23T07:51:21.805Z,99574.93
2022-09-23T07:52:23.812Z,99577.08
2022-09-23T07:53:27.378Z,99567.56
2022-09-23T07:54:29.283Z,99564.91
2022-09-23T07:55:31.292Z,99569.42
2022-09-23T07:56:34.906Z,99573.91
2022-09-23T07:57:37.369Z,99582.58
2022-09-23T07:58:39.298Z,99570.04
2022-09-23T07:59:41.062Z,99571.86
2022-09-23T08:00:43.257Z,99574.69
2022-09-23T08:01:49.038Z,99566.05
2022-09-23T08:02:53.116Z,99577.51
2022-09-23T08:04:00.088Z,99570.04
2022-09-23T08:05:02.477Z,99562.22
2022-09-23T08:06:13.143Z,99564.96
2022-09-23T08:07:15.662Z,99563.73
2022-09-23T08:08:17.648Z,99568.48
2022-09-23T08:09:22.734Z,99566.03
2022-09-23T08:10:25.560Z,99563.55
2022-09-23T08:11:28.473Z,99565.98
2022-09-23T08:12:32.244Z,99564.42
2022-09-23T08:13:34.502Z,99568.48
2022-09-23T08:14:36.552Z,99564.05
2022-09-23T08:15:38.633Z,99566.91
2022-09-23T08:16:42.188Z,99570.77
2022-09-23T08:17:44.141Z,99563.57
2022-09-23T08:18:46.660Z,99565.78
2022-09-23T08:19:48.390Z,99571.34
2022-09-23T08:20:50.918Z,99574.19
2022-09-23T08:21:52.873Z,99568.58
2022-09-23T08:22:55.907Z,99571.00
2022-09-23T08:23:57.899Z,99564.44
2022-09-23T08:24:59.987Z,99573.79
2022-09-23T08:26:05.378Z,99566.87
2022-09-23T08:27:07.290Z,99563.23
2022-09-23T08:28:09.381Z,99570.05
2022-09-23T08:29:16.797Z,99564.89
2022-09-23T08:30:19.978Z,99563.77
2022-09-23T08:31:23.055Z,99559.14
2022-09-23T08:32:25.328Z,99562.02
2022-09-23T08:33:27.793Z,99566.34
2022-09-23T08:34:29.668Z,99560.53
2022-09-23T08:35:32.009Z,99557.97
2022-09-23T08:36:35.316Z,99564.18
2022-09-23T08:37:37.609Z,99565.80
2022-09-23T08:38:39.465Z,99560.84
2022-09-23T08:39:43.351Z,99567.95
2022-09-23T08:40:49.091Z,99565.52
2022-09-23T08:41:58.938Z,99559.97
2022-09-23T08:43:01.530Z,99561.19
2022-09-23T08:44:16.979Z,99568.48
2022-09-23T08:45:22.896Z,99562.91
2022-09-23T08:46:28.645Z,99563.45
2022-09-23T08:47:53.855Z,99563.52
2022-09-23T08:48:58.460Z,99565.91
2022-09-23T08:50:07.620Z,99562.38
2022-09-23T08:51:16.957Z,99558.84
2022-09-23T08:53:36.755Z,99549.38
2022-09-23T08:54:40.269Z,99554.77
2022-09-23T08:55:48.099Z,99552.55
2022-09-23T08:56:53.710Z,99545.52
2022-09-23T08:58:26.136Z,99553.91
2022-09-23T08:59:26.135Z,99554.36
2022-09-23T09:00:34.705Z,99549.88
2022-09-23T09:01:58.078Z,99549.61
2022-09-23T09:03:01.118Z,99546.52
2022-09-23T09:04:19.725Z,99545.69
2022-09-23T09:05:27.659Z,99543.13
2022-09-23T09:06:41.921Z,99543.42
2022-09-23T09:07:41.940Z,99544.96
2022-09-23T09:08:48.483Z,99547.83
2022-09-23T09:09:54.611Z,99546.91
2022-09-23T09:10:58.011Z,99547.77
2022-09-23T09:12:20.865Z,99541.33
2022-09-23T09:13:32.848Z,99546.64
2022-09-23T09:14:58.776Z,99551.25
2022-09-23T09:16:55.608Z,99546.34
2022-09-23T09:17:38.596Z,99552.43
2022-09-23T09:18:55.427Z,99560.08
2022-09-23T09:20:21.136Z,99558.70
2022-09-23T09:21:30.328Z,99552.89
2022-09-23T09:22:38.887Z,99552.33
2022-09-23T09:23:56.012Z,99552.73
2022-09-23T09:25:01.547Z,99554.09
2022-09-23T09:26:06.411Z,99548.20
2022-09-23T09:27:12.872Z,99553.58
2022-09-23T09:28:29.682Z,99559.72
2022-09-23T09:29:36.301Z,99562.28
2022-09-23T09:30:39.488Z,99551.36
2022-09-23T09:31:44.875Z,99552.19
2022-09-23T09:33:05.913Z,99541.53
2022-09-23T09:34:28.440Z,99549.52
2022-09-23T09:35:40.630Z,99548.19
2022-09-23T09:36:53.502Z,99548.66
2022-09-23T09:37:55.436Z,99533.45
2022-09-23T09:38:57.616Z,99536.47
2022-09-23T09:40:00.511Z,99531.27
2022-09-23T09:41:11.845Z,99529.24
2022-09-23T09:42:17.388Z,99530.01
2022-09-23T09:43:20.197Z,99524.20
2022-09-23T09:44:33.001Z,99525.16
2022-09-23T09:45:58.972Z,99529.25
2022-09-23T09:47:07.791Z,99536.33
2022-09-23T09:48:20.385Z,99536.37
2022-09-23T09:49:42.737Z,99535.75
2022-09-23T09:50:48.502Z,99532.95
2022-09-23T09:52:14.910Z,99534.81
2022-09-23T09:53:24.106Z,99529.95
2022-09-23T09:54:26.268Z,99523.64
2022-09-23T09:55:29.321Z,99525.92
2022-09-23T09:56:34.360Z,99535.41
2022-09-23T09:57:40.491Z,99534.55
2022-09-23T09:58:49.025Z,99536.46
2022-09-23T09:59:52.169Z,99534.31
2022-09-23T10:00:54.673Z,99542.81
2022-09-23T10:02:30.546Z,99531.88
2022-09-23T10:03:44.030Z,99532.94
2022-09-23T10:04:48.167Z,99529.27
2022-09-23T10:05:52.092Z,99529.55
2022-09-23T10:07:07.335Z,99523.70
2022-09-23T10:08:30.648Z,99526.88
2022-09-23T10:09:36.123Z,99541.48
2022-09-23T10:10:38.278Z,99527.67
2022-09-23T10:11:41.545Z,99531.34
2022-09-23T10:12:45.409Z,99529.68
2022-09-23T10:14:06.419Z,99534.50
2022-09-23T10:15:11.996Z,99544.66
2022-09-23T10:16:15.704Z,99533.13
2022-09-23T10:17:21.455Z,99528.14
2022-09-23T10:18:39.462Z,99534.02
2022-09-23T10:19:46.013Z,99537.52
2022-09-23T10:20:48.592Z,99534.18
2022-09-23T10:21:53.389Z,99535.83
2022-09-23T10:22:55.783Z,99547.23
2022-09-23T10:23:58.911Z,99535.83
2022-09-23T10:25:05.121Z,99535.87
2022-09-23T10:26:08.775Z,99537.52
2022-09-23T10:27:11.371Z,99525.45
2022-09-23T10:28:33.651Z,99517.65
2022-09-23T10:29:42.727Z,99529.24
2022-09-23T10:30:49.032Z,99532.62
2022-09-23T10:31:55.331Z,99530.52
2022-09-23T10:32:58.309Z,99525.59
2022-09-23T10:34:21.877Z,99530.80
2022-09-23T10:35:25.661Z,99525.40
2022-09-23T10:36:31.167Z,99524.41
2022-09-23T10:37:54.028Z,99525.87
2022-09-23T10:40:39.097Z,99525.02
2022-09-23T10:41:52.944Z,99531.83
2022-09-23T10:43:07.180Z,99534.85
2022-09-23T10:44:12.896Z,99535.61
2022-09-23T10:45:21.661Z,99527.92
2022-09-23T10:46:30.262Z,99524.77
2022-09-23T10:47:52.781Z,99535.39
2022-09-23T10:49:25.006Z,99525.09
2022-09-23T10:50:42.971Z,99530.31
2022-09-23T10:52:11.336Z,99527.57
2022-09-23T10:53:35.377Z,99525.22
2022-09-23T10:54:59.308Z,99521.48
2022-09-23T10:56:26.401Z,99521.19
2022-09-23T10:57:43.976Z,99530.08
2022-09-23T10:58:55.566Z,99526.24
2022-09-23T11:00:04.344Z,99514.68
2022-09-23T11:01:19.685Z,99524.60
2022-09-23T11:02:34.641Z,99513.29
2022-09-23T11:03:46.088Z,99512.93
2022-09-23T11:05:21.753Z,99524.20
2022-09-23T11:06:44.853Z,99518.16
2022-09-23T11:07:57.207Z,99511.28
2022-09-23T11:09:33.168Z,99524.27
2022-09-23T11:11:02.585Z,99521.19
2022-09-23T11:12:27.103Z,99521.13
2022-09-23T11:13:36.600Z,99518.92
2022-09-23T11:14:54.116Z,99517.06
2022-09-23T11:16:02.733Z,99518.75
2022-09-23T11:17:17.610Z,99517.43
2022-09-23T11:18:38.628Z,99523.48
2022-09-23T11:20:02.583Z,99520.00
2022-09-23T11:21:28.255Z,99520.41
2022-09-23T11:23:08.482Z,99521.92
2022-09-23T11:24:32.158Z,99518.96
2022-09-23T11:25:50.238Z,99521.26
2022-09-23T11:28:42.718Z,99504.14
2022-09-23T11:29:48.381Z,99512.89
2022-09-23T11:30:54.229Z,99507.59
2022-09-23T11:32:07.302Z,99502.37
2022-09-23T11:33:29.540Z,99502.37
2022-09-23T11:34:38.953Z,99504.04
2022-09-23T11:35:50.647Z,99508.88
2022-09-23T11:37:03.137Z,99506.11
2022-09-23T11:38:26.910Z,99497.89
2022-09-23T11:39:32.521Z,99501.73
2022-09-23T11:40:39.851Z,99504.98
2022-09-23T11:41:43.348Z,99518.78
2022-09-23T11:42:58.190Z,99496.73
2022-09-23T11:44:04.976Z,99518.39
2022-09-23T11:45:16.471Z,99509.20
2022-09-23T11:46:42.643Z,99508.27
2022-09-23T11:47:53.823Z,99500.44
2022-09-23T11:49:11.336Z,99504.77
2022-09-23T11:50:29.421Z,99489.47
2022-09-23T11:51:52.737Z,99496.59
2022-09-23T11:53:04.449Z,99501.61
2022-09-23T11:54:20.279Z,99492.66
2022-09-23T11:55:26.228Z,99495.48
2022-09-23T11:56:41.092Z,99497.16
2022-09-23T11:57:55.681Z,99487.27
2022-09-23T11:59:14.363Z,99485.01
2022-09-23T12:00:20.461Z,99494.05
2022-09-23T12:01:37.349Z,99495.01
2022-09-23T12:03:06.234Z,99490.98
2022-09-23T12:04:23.396Z,99487.44
2022-09-23T12:05:29.571Z,99490.42
2022-09-23T12:07:09.181Z,99481.28
2022-09-23T12:08:30.120Z,99487.79
2022-09-23T12:09:58.517Z,99490.91
2022-09-23T12:11:20.996Z,99487.61
2022-09-23T12:12:38.455Z,99484.22
2022-09-23T12:14:05.520Z,99488.55
2022-09-23T12:15:32.101Z,99482.73
2022-09-23T12:16:38.505Z,99492.23
2022-09-23T12:17:47.071Z,99496.04
2022-09-23T12:19:12.622Z,99494.49
2022-09-23T12:20:27.276Z,99485.72
2022-09-23T12:21:50.788Z,99492.23
2022-09-23T12:23:25.035Z,99488.52
2022-09-23T12:24:47.192Z,99491.52
2022-09-23T12:25:59.491Z,99492.34
2022-09-23T12:27:05.234Z,99490.37
2022-09-23T12:28:13.513Z,99489.09
2022-09-23T12:29:15.989Z,99508.11
2022-09-23T12:30:22.085Z,99508.53
2022-09-23T12:31:26.595Z,99493.12
2022-09-23T12:32:29.543Z,99502.16
2022-09-23T12:33:33.335Z,99497.52
2022-09-23T12:34:42.150Z,99503.50
2022-09-23T12:35:46.810Z,99499.13
2022-09-23T12:36:49.151Z,99505.00
2022-09-23T12:37:52.404Z,99509.92
2022-09-23T12:39:07.213Z,99494.17
2022-09-23T12:40:29.976Z,99496.02
2022-09-23T12:41:39.160Z,99493.17
2022-09-23T12:42:45.536Z,99501.41
2022-09-23T12:43:53.601Z,99498.09
2022-09-23T12:45:15.647Z,99502.52
2022-09-23T12:46:26.376Z,99498.83
2022-09-23T12:47:31.990Z,99490.58
2022-09-23T12:49:57.473Z,99492.79
2022-09-23T12:51:16.081Z,99496.56
2022-09-23T12:52:21.807Z,99488.39
2022-09-23T12:53:36.617Z,99487.77
2022-09-23T12:54:39.909Z,99490.05
2022-09-23T12:55:46.731Z,99490.66
2022-09-23T12:56:55.866Z,99490.63
2022-09-23T12:57:59.036Z,99491.72
2022-09-23T12:59:11.320Z,99488.67
2022-09-23T13:00:23.023Z,99487.05
2022-09-23T13:01:26.221Z,99503.66
2022-09-23T13:02:35.835Z,99489.50
2022-09-23T13:03:53.768Z,99485.97
2022-09-23T13:05:24.345Z,99497.34
2022-09-23T13:06:30.145Z,99494.59
2022-09-23T13:07:32.935Z,99492.45
2022-09-23T13:08:41.187Z,99490.61
2022-09-23T13:09:47.835Z,99491.75
2022-09-23T13:10:57.564Z,99488.44
2022-09-23T13:12:06.257Z,99485.77
2022-09-23T13:13:27.602Z,99488.64
2022-09-23T13:14:32.807Z,99489.85
2022-09-23T13:15:36.303Z,99490.77
2022-09-23T13:16:46.105Z,99487.41
2022-09-23T13:17:49.311Z,99487.41
2022-09-23T13:18:53.381Z,99491.88
2022-09-23T13:20:05.268Z,99494.33
2022-09-23T13:21:16.330Z,99502.16
2022-09-23T13:22:23.037Z,99498.25
2022-09-23T13:23:29.103Z,99500.47
2022-09-23T13:24:37.656Z,99487.81
2022-09-23T13:25:41.891Z,99497.49
2022-09-23T13:26:55.666Z,99490.50